createdAt,value
2023-02-07T00:01:19.007Z,37.10
2023-02-07T00:03:47.839Z,37.53
2023-02-07T00:06:17.740Z,39.33
2023-02-07T00:08:44.952Z,38.97
2023-02-07T00:11:16.581Z,38.53
2023-02-07T00:13:45.186Z,37.57
2023-02-07T00:16:12.689Z,36.70
2023-02-07T00:18:41.037Z,37.57
2023-02-07T00:21:10.879Z,38.17
2023-02-07T00:23:39.145Z,36.67
2023-02-07T00:26:07.506Z,38.27
2023-02-07T00:28:35.658Z,39.87
2023-02-07T00:31:15.709Z,38.63
2023-02-07T00:33:44.338Z,43.93
2023-02-07T00:36:14.877Z,42.57
2023-02-07T00:38:42.571Z,42.50
2023-02-07T00:41:15.120Z,45.20
2023-02-07T00:43:42.879Z,46.03
2023-02-07T00:46:10.478Z,50.43
2023-02-07T00:48:39.460Z,45.43
2023-02-07T00:51:09.616Z,50.83
2023-02-07T00:53:37.868Z,49.80
2023-02-07T00:56:05.101Z,47.10
2023-02-07T00:58:32.368Z,50.90
2023-02-07T01:00:59.987Z,46.07
2023-02-07T01:03:27.303Z,46.13
2023-02-07T01:05:54.297Z,46.37
2023-02-07T01:08:21.466Z,46.97
2023-02-07T01:10:48.546Z,48.13
2023-02-07T01:13:16.693Z,50.70
2023-02-07T01:15:46.083Z,48.87
2023-02-07T01:18:15.374Z,50.00
2023-02-07T01:20:42.190Z,50.70
2023-02-07T01:23:11.288Z,50.07
2023-02-07T01:25:39.342Z,49.20
2023-02-07T01:28:07.249Z,49.20
2023-02-07T01:30:34.160Z,51.87
2023-02-07T01:33:01.502Z,52.37
2023-02-07T01:35:28.397Z,51.47
2023-02-07T01:37:55.678Z,51.57
2023-02-07T01:40:22.536Z,48.57
2023-02-07T01:42:50.378Z,52.50
2023-02-07T01:45:24.017Z,52.23
2023-02-07T01:47:54.294Z,51.20
2023-02-07T01:50:22.672Z,53.47
2023-02-07T01:52:50.914Z,52.30
2023-02-07T01:55:25.944Z,55.37
2023-02-07T01:57:53.837Z,55.00
2023-02-07T02:00:21.970Z,56.13
2023-02-07T02:02:49.252Z,54.80
2023-02-07T02:05:18.775Z,52.03
2023-02-07T02:07:47.511Z,52.03
2023-02-07T02:10:17.573Z,57.67
2023-02-07T02:13:23.379Z,51.30
2023-02-07T02:16:18.644Z,51.80
2023-02-07T02:19:17.095Z,52.00
2023-02-07T02:22:06.488Z,49.67
2023-02-07T02:24:53.311Z,51.23
2023-02-07T02:27:53.322Z,44.80
2023-02-07T02:30:23.362Z,45.67
2023-02-07T02:33:21.355Z,45.60
2023-02-07T02:35:54.263Z,43.67
2023-02-07T02:38:43.215Z,44.93
2023-02-07T02:41:38.727Z,43.57
2023-02-07T02:44:24.333Z,41.20
2023-02-07T02:46:54.111Z,41.33
2023-02-07T02:49:22.966Z,43.17
2023-02-07T02:51:51.705Z,41.63
2023-02-07T02:54:31.135Z,41.33
2023-02-07T02:57:28.309Z,42.30
2023-02-07T03:00:08.901Z,42.60
2023-02-07T03:02:55.119Z,41.70
2023-02-07T03:05:52.750Z,38.43
2023-02-07T03:08:23.651Z,39.30
2023-02-07T03:11:11.688Z,37.97
2023-02-07T03:14:14.248Z,40.83
2023-02-07T03:16:58.580Z,38.03
2023-02-07T03:19:33.874Z,39.00
2023-02-07T03:22:10.759Z,37.90
2023-02-07T03:24:43.698Z,34.13
2023-02-07T03:27:14.641Z,35.50
2023-02-07T03:29:46.424Z,32.77
2023-02-07T03:32:16.597Z,31.80
2023-02-07T03:35:12.865Z,32.73
2023-02-07T03:37:48.115Z,34.00
2023-02-07T03:40:16.181Z,31.40
2023-02-07T03:42:55.394Z,31.70
2023-02-07T03:45:22.972Z,32.10
2023-02-07T03:47:50.025Z,30.87
2023-02-07T03:50:17.739Z,32.33
2023-02-07T03:52:44.792Z,32.23
2023-02-07T03:55:12.517Z,32.33
2023-02-07T03:57:39.407Z,31.47
2023-02-07T04:00:07.804Z,30.50
2023-02-07T04:02:40.854Z,31.13
2023-02-07T04:05:08.783Z,28.40
2023-02-07T04:07:35.613Z,29.53
2023-02-07T04:10:03.904Z,28.50
2023-02-07T04:12:32.974Z,29.03
2023-02-07T04:15:01.178Z,30.27
2023-02-07T04:17:31.039Z,30.47
2023-02-07T04:20:01.497Z,29.43
2023-02-07T04:22:29.508Z,27.83
2023-02-07T04:24:57.070Z,28.37
2023-02-07T04:27:24.751Z,27.63
2023-02-07T04:29:52.403Z,27.60
2023-02-07T04:32:19.323Z,28.20
2023-02-07T04:34:46.486Z,29.07
2023-02-07T04:37:14.018Z,28.73
2023-02-07T04:39:41.212Z,28.73
2023-02-07T04:42:08.096Z,28.37
2023-02-07T04:44:35.236Z,28.97
2023-02-07T04:47:02.105Z,29.83
2023-02-07T04:49:33.093Z,28.67
2023-02-07T04:52:01.433Z,28.83
2023-02-07T04:54:28.548Z,29.83
2023-02-07T04:56:55.402Z,30.30
2023-02-07T04:59:22.714Z,28.70
2023-02-07T05:01:49.636Z,29.23
2023-02-07T05:04:16.802Z,29.30
2023-02-07T05:06:43.787Z,29.17
2023-02-07T05:09:10.850Z,31.43
2023-02-07T05:11:37.770Z,28.03
2023-02-07T05:14:04.860Z,30.23
2023-02-07T05:16:31.993Z,29.33
2023-02-07T05:18:59.300Z,30.10
2023-02-07T05:21:26.104Z,28.93
2023-02-07T05:23:53.399Z,28.83
2023-02-07T05:26:20.268Z,26.60
2023-02-07T05:28:47.730Z,26.63
2023-02-07T05:31:14.697Z,26.83
2023-02-07T05:33:41.811Z,25.90
2023-02-07T05:36:09.129Z,24.83
2023-02-07T05:38:36.312Z,24.00
2023-02-07T05:41:03.272Z,22.27
2023-02-07T05:43:30.564Z,21.60
2023-02-07T05:45:57.435Z,22.60
2023-02-07T05:48:24.778Z,23.17
2023-02-07T05:50:51.613Z,24.87
2023-02-07T05:53:19.236Z,19.20
2023-02-07T05:55:46.193Z,17.50
2023-02-07T05:58:13.417Z,19.13
2023-02-07T06:00:40.554Z,17.13
2023-02-07T06:03:07.800Z,13.60
2023-02-07T06:05:35.280Z,15.47
2023-02-07T06:08:02.427Z,14.37
2023-02-07T06:10:29.402Z,13.03
2023-02-07T06:12:56.626Z,9.30
2023-02-07T06:15:23.698Z,8.33
2023-02-07T06:17:50.865Z,8.10
2023-02-07T06:20:17.823Z,7.13
2023-02-07T06:22:45.383Z,7.43
2023-02-07T06:25:12.277Z,8.67
2023-02-07T06:27:40.883Z,8.30
2023-02-07T06:30:10.008Z,9.60
2023-02-07T06:32:37.301Z,10.10
2023-02-07T06:35:06.352Z,14.60
2023-02-07T06:37:33.719Z,15.37
2023-02-07T06:40:00.612Z,14.63
2023-02-07T06:42:27.749Z,13.60
2023-02-07T06:44:54.492Z,11.47
2023-02-07T06:47:21.651Z,12.00
2023-02-07T06:49:48.630Z,15.73
2023-02-07T06:52:16.204Z,14.47
2023-02-07T06:54:43.392Z,14.37
2023-02-07T06:57:10.702Z,14.23
2023-02-07T06:59:37.559Z,15.53
2023-02-07T07:02:04.894Z,14.90
2023-02-07T07:04:32.139Z,14.63
2023-02-07T07:06:59.373Z,15.03
2023-02-07T07:09:26.401Z,13.73
2023-02-07T07:11:53.685Z,13.87
2023-02-07T07:14:21.092Z,13.73
2023-02-07T07:16:48.310Z,12.40
2023-02-07T07:19:15.242Z,11.07
2023-02-07T07:21:42.351Z,11.50
2023-02-07T07:24:09.267Z,10.90
2023-02-07T07:26:48.511Z,11.73
2023-02-07T07:29:16.623Z,12.87
2023-02-07T07:31:44.221Z,13.97
2023-02-07T07:34:11.223Z,10.90
2023-02-07T07:36:38.386Z,10.53
2023-02-07T07:39:05.407Z,11.23
2023-02-07T07:41:32.576Z,10.40
2023-02-07T07:43:59.523Z,10.37
2023-02-07T07:46:26.801Z,12.13
2023-02-07T07:48:53.639Z,12.50
2023-02-07T07:51:20.771Z,13.20
2023-02-07T07:53:47.674Z,11.53
2023-02-07T07:56:14.890Z,9.73
2023-02-07T07:58:41.897Z,10.17
2023-02-07T08:01:09.150Z,10.50
2023-02-07T08:03:36.115Z,11.83
2023-02-07T08:06:03.359Z,11.87
2023-02-07T08:08:30.237Z,14.20
2023-02-07T08:11:01.870Z,16.80
2023-02-07T08:13:32.306Z,24.60
2023-02-07T08:16:00.450Z,26.17
2023-02-07T08:18:27.817Z,26.43
2023-02-07T08:20:55.338Z,25.20
2023-02-07T08:23:22.505Z,27.53
2023-02-07T08:25:50.260Z,31.93
2023-02-07T08:28:17.427Z,34.57
2023-02-07T08:30:47.702Z,26.07
2023-02-07T08:33:15.846Z,20.53
2023-02-07T08:35:43.576Z,20.63
2023-02-07T08:38:10.739Z,16.03
2023-02-07T08:40:38.432Z,16.73
2023-02-07T08:43:07.284Z,14.57
2023-02-07T08:45:34.625Z,13.50
2023-02-07T08:48:01.539Z,16.03
2023-02-07T08:50:28.773Z,12.67
2023-02-07T08:52:55.605Z,13.13
2023-02-07T08:55:22.801Z,12.70
2023-02-07T08:57:49.984Z,13.13
2023-02-07T09:00:17.505Z,8.13
2023-02-07T09:02:44.607Z,13.87
2023-02-07T09:05:12.413Z,11.00
2023-02-07T09:07:39.792Z,10.80
2023-02-07T09:10:08.877Z,11.83
2023-02-07T09:12:36.450Z,28.67
2023-02-07T09:15:05.948Z,15.03
2023-02-07T09:17:32.923Z,14.27
2023-02-07T09:20:00.186Z,10.43
2023-02-07T09:22:27.327Z,6.83
2023-02-07T09:24:54.761Z,7.27
2023-02-07T09:27:21.590Z,7.93
2023-02-07T09:29:49.030Z,7.83
2023-02-07T09:32:15.872Z,5.73
2023-02-07T09:34:43.150Z,6.77
2023-02-07T09:37:10.297Z,10.40
2023-02-07T09:39:38.932Z,10.07
2023-02-07T09:42:34.641Z,9.30
2023-02-07T09:45:08.683Z,9.13
2023-02-07T09:47:41.361Z,6.53
2023-02-07T09:50:16.567Z,11.67
2023-02-07T09:52:50.364Z,12.00
2023-02-07T09:55:26.900Z,9.80
2023-02-07T09:58:06.783Z,6.23
2023-02-07T10:00:37.968Z,5.23
2023-02-07T10:03:17.580Z,5.13
2023-02-07T10:06:17.455Z,4.10
2023-02-07T10:08:48.888Z,6.33
2023-02-07T10:11:31.130Z,6.13
2023-02-07T10:14:19.384Z,4.80
2023-02-07T10:16:54.917Z,7.73
2023-02-07T10:19:40.137Z,7.37
2023-02-07T10:22:26.380Z,6.47
2023-02-07T10:25:08.780Z,10.10
2023-02-07T10:28:14.147Z,7.53
2023-02-07T10:30:47.809Z,15.57
2023-02-07T10:33:24.536Z,10.43
2023-02-07T10:35:53.557Z,13.60
2023-02-07T10:38:43.766Z,14.40
2023-02-07T10:41:34.087Z,29.40
2023-02-07T10:44:01.551Z,18.27
2023-02-07T10:46:30.016Z,8.70
2023-02-07T10:48:57.365Z,13.53
2023-02-07T10:51:33.642Z,6.93
2023-02-07T10:54:04.332Z,5.10
2023-02-07T10:56:33.398Z,9.83
2023-02-07T10:59:00.515Z,5.17
2023-02-07T11:01:30.596Z,5.43
2023-02-07T11:03:58.178Z,3.90
2023-02-07T11:06:32.097Z,3.67
2023-02-07T11:09:24.129Z,12.90
2023-02-07T11:11:52.797Z,5.53
2023-02-07T11:14:26.683Z,27.03
2023-02-07T11:16:58.741Z,3.57
2023-02-07T11:19:28.958Z,22.90
2023-02-07T11:22:08.332Z,5.47
2023-02-07T11:24:37.640Z,28.90
2023-02-07T11:27:15.621Z,16.73
2023-02-07T11:29:57.109Z,48.70
2023-02-07T11:32:26.701Z,17.13
2023-02-07T11:35:09.927Z,19.30
2023-02-07T11:37:48.782Z,16.67
2023-02-07T11:40:36.721Z,5.37
2023-02-07T11:43:10.215Z,5.73
2023-02-07T11:45:41.158Z,3.97
2023-02-07T11:48:28.024Z,5.77
2023-02-07T11:50:58.082Z,4.97
2023-02-07T11:53:56.711Z,4.07
2023-02-07T11:56:29.897Z,3.43
2023-02-07T11:58:58.100Z,7.83
2023-02-07T12:01:29.914Z,32.40
2023-02-07T12:04:18.762Z,15.17
2023-02-07T12:06:53.190Z,8.70
2023-02-07T12:09:29.101Z,5.77
2023-02-07T12:12:00.252Z,7.17
2023-02-07T12:14:39.182Z,2.50
2023-02-07T12:17:13.484Z,2.07
2023-02-07T12:20:12.019Z,1.70
2023-02-07T12:22:58.769Z,1.70
2023-02-07T12:25:47.028Z,4.40
2023-02-07T12:28:46.112Z,4.90
2023-02-07T12:31:50.239Z,3.27
2023-02-07T12:34:27.121Z,5.10
2023-02-07T12:37:05.280Z,5.90
2023-02-07T12:40:02.632Z,4.70
2023-02-07T12:42:45.097Z,4.77
2023-02-07T12:45:17.864Z,6.80
2023-02-07T12:48:12.823Z,5.67
2023-02-07T12:51:31.139Z,12.23
2023-02-07T12:54:49.320Z,6.43
2023-02-07T12:57:39.373Z,6.37
2023-02-07T13:00:13.496Z,6.90
2023-02-07T13:03:00.503Z,8.37
2023-02-07T13:05:49.271Z,7.57
2023-02-07T13:08:34.029Z,11.03
2023-02-07T13:11:34.007Z,14.90
2023-02-07T13:14:28.111Z,14.27
2023-02-07T13:17:16.261Z,10.27
2023-02-07T13:20:01.492Z,10.73
2023-02-07T13:22:43.103Z,10.03
2023-02-07T13:25:23.407Z,11.23
2023-02-07T13:27:54.721Z,6.47
2023-02-07T13:30:23.366Z,7.10
2023-02-07T13:32:50.963Z,5.87
2023-02-07T13:35:22.070Z,8.23
2023-02-07T13:38:16.675Z,9.47
2023-02-07T13:41:05.117Z,8.63
2023-02-07T13:44:01.679Z,6.90
2023-02-07T13:46:54.390Z,4.70
2023-02-07T13:49:49.314Z,5.07
2023-02-07T13:52:19.323Z,5.57
2023-02-07T13:55:17.573Z,9.57
2023-02-07T13:58:03.774Z,10.20
2023-02-07T14:00:58.177Z,4.73
2023-02-07T14:03:31.514Z,4.40
2023-02-07T14:06:25.760Z,3.87
2023-02-07T14:09:05.098Z,5.63
2023-02-07T14:11:37.886Z,3.53
2023-02-07T14:14:28.034Z,4.33
2023-02-07T14:17:04.400Z,3.67
2023-02-07T14:19:40.618Z,3.40
2023-02-07T14:22:27.035Z,3.93
2023-02-07T14:25:03.423Z,5.03
2023-02-07T14:27:35.600Z,4.33
2023-02-07T14:30:11.813Z,4.00
2023-02-07T14:32:47.618Z,3.80
2023-02-07T14:35:17.522Z,4.20
2023-02-07T14:37:53.554Z,4.40
2023-02-07T14:40:31.563Z,4.70
2023-02-07T14:43:01.350Z,8.70
2023-02-07T14:45:35.614Z,7.80
2023-02-07T14:48:04.406Z,4.30
2023-02-07T14:50:33.570Z,5.37
2023-02-07T14:53:06.017Z,4.30
2023-02-07T14:55:37.459Z,6.93
2023-02-07T14:58:23.363Z,13.70
2023-02-07T15:00:56.812Z,9.30
2023-02-07T15:03:23.643Z,9.47
2023-02-07T15:05:59.546Z,8.50
2023-02-07T15:08:30.279Z,8.90
2023-02-07T15:11:07.737Z,9.60
2023-02-07T15:13:46.237Z,8.00
2023-02-07T15:16:42.864Z,7.90
2023-02-07T15:19:21.990Z,7.97
2023-02-07T15:21:52.006Z,7.67
2023-02-07T15:24:28.742Z,6.27
2023-02-07T15:27:04.161Z,6.13
2023-02-07T15:29:33.434Z,5.00
2023-02-07T15:32:01.623Z,5.33
2023-02-07T15:34:35.044Z,8.27
2023-02-07T15:37:19.352Z,7.63
2023-02-07T15:39:47.140Z,6.50
2023-02-07T15:42:17.787Z,10.80
2023-02-07T15:44:53.543Z,9.57
2023-02-07T15:47:29.953Z,8.07
2023-02-07T15:50:13.951Z,9.07
2023-02-07T15:52:44.584Z,7.47
2023-02-07T15:55:22.879Z,10.77
2023-02-07T15:57:50.922Z,10.83
2023-02-07T16:00:30.929Z,8.80
2023-02-07T16:03:00.792Z,9.07
2023-02-07T16:05:31.677Z,9.93
2023-02-07T16:08:01.681Z,8.77
2023-02-07T16:10:36.346Z,8.87
2023-02-07T16:13:16.822Z,7.43
2023-02-07T16:16:00.284Z,10.30
2023-02-07T16:18:42.588Z,11.97
2023-02-07T16:21:16.899Z,24.77
2023-02-07T16:23:45.511Z,12.23
2023-02-07T16:26:12.921Z,9.57
2023-02-07T16:28:40.099Z,7.67
2023-02-07T16:31:07.139Z,9.53
2023-02-07T16:33:34.296Z,26.00
2023-02-07T16:36:01.076Z,14.97
2023-02-07T16:38:28.199Z,45.03
2023-02-07T16:40:54.935Z,21.17
2023-02-07T16:43:42.567Z,19.67
2023-02-07T16:46:09.448Z,50.73
2023-02-07T16:48:36.938Z,24.60
2023-02-07T16:51:04.023Z,29.10
2023-02-07T16:53:31.208Z,19.77
2023-02-07T16:55:59.338Z,24.50
2023-02-07T16:58:30.205Z,19.83
2023-02-07T17:00:57.451Z,12.77
2023-02-07T17:03:24.756Z,12.57
2023-02-07T17:05:51.779Z,12.27
2023-02-07T17:08:26.974Z,11.60
2023-02-07T17:10:59.020Z,11.57
2023-02-07T17:13:27.083Z,13.83
2023-02-07T17:15:54.225Z,12.97
2023-02-07T17:18:21.933Z,13.40
2023-02-07T17:20:48.904Z,13.33
2023-02-07T17:23:16.086Z,13.30
2023-02-07T17:25:44.239Z,24.50
2023-02-07T17:28:13.519Z,23.33
2023-02-07T17:30:41.993Z,13.83
2023-02-07T17:33:10.669Z,14.60
2023-02-07T17:35:38.633Z,16.43
2023-02-07T17:38:06.129Z,20.53
2023-02-07T17:40:38.885Z,17.20
2023-02-07T17:43:07.676Z,17.90
2023-02-07T17:45:37.170Z,17.30
2023-02-07T17:48:05.292Z,17.23
2023-02-07T17:50:35.083Z,15.13
2023-02-07T17:53:03.427Z,19.43
2023-02-07T17:55:31.515Z,16.83
2023-02-07T17:57:59.341Z,15.93
2023-02-07T18:00:29.325Z,14.77
2023-02-07T18:02:56.821Z,16.27
2023-02-07T18:05:24.602Z,18.17
2023-02-07T18:07:52.231Z,17.43
2023-02-07T18:10:25.174Z,14.30
2023-02-07T18:12:52.457Z,16.13
2023-02-07T18:15:20.261Z,14.90
2023-02-07T18:17:48.482Z,15.40
2023-02-07T18:20:30.056Z,27.43
2023-02-07T18:22:58.551Z,22.07
2023-02-07T18:25:27.204Z,21.07
2023-02-07T18:27:55.541Z,22.43
2023-02-07T18:30:24.475Z,18.63
2023-02-07T18:32:51.941Z,21.03
2023-02-07T18:35:19.108Z,24.50
2023-02-07T18:37:46.258Z,23.50
2023-02-07T18:40:13.197Z,28.93
2023-02-07T18:42:40.341Z,26.93
2023-02-07T18:45:07.847Z,25.67
2023-02-07T18:47:34.939Z,24.37
2023-02-07T18:50:01.995Z,24.43
2023-02-07T18:52:29.664Z,20.43
2023-02-07T18:54:56.471Z,23.30
2023-02-07T18:57:23.496Z,26.57
2023-02-07T18:59:50.344Z,24.70
2023-02-07T19:02:17.848Z,26.77
2023-02-07T19:04:46.962Z,25.50
2023-02-07T19:07:14.401Z,25.40
2023-02-07T19:09:41.343Z,26.37
2023-02-07T19:12:10.596Z,30.27
2023-02-07T19:14:38.063Z,34.80
2023-02-07T19:17:05.297Z,39.07
2023-02-07T19:19:32.390Z,43.60
2023-02-07T19:21:59.886Z,41.77
2023-02-07T19:24:27.435Z,41.53
2023-02-07T19:26:57.723Z,45.03
2023-02-07T19:29:30.056Z,43.43
2023-02-07T19:31:59.301Z,40.60
2023-02-07T19:34:26.797Z,42.03
2023-02-07T19:36:54.219Z,39.80
2023-02-07T19:39:21.820Z,40.43
2023-02-07T19:41:49.252Z,35.77
2023-02-07T19:44:17.193Z,35.90
2023-02-07T19:46:44.826Z,33.67
2023-02-07T19:49:13.221Z,32.70
2023-02-07T19:51:40.044Z,25.47
2023-02-07T19:54:07.695Z,24.73
2023-02-07T19:56:35.134Z,25.13
2023-02-07T19:59:05.345Z,32.70
2023-02-07T20:01:34.270Z,32.60
2023-02-07T20:04:01.852Z,31.83
2023-02-07T20:06:32.610Z,29.43
2023-02-07T20:09:01.504Z,23.97
2023-02-07T20:11:29.581Z,23.30
2023-02-07T20:14:02.879Z,31.20
2023-02-07T20:16:33.196Z,28.60
2023-02-07T20:19:01.201Z,25.53
2023-02-07T20:21:30.027Z,24.63
2023-02-07T20:23:57.757Z,28.90
2023-02-07T20:26:37.768Z,33.40
2023-02-07T20:29:09.385Z,31.63
2023-02-07T20:31:37.069Z,27.13
2023-02-07T20:34:05.189Z,33.90
2023-02-07T20:36:33.763Z,30.00
2023-02-07T20:39:00.859Z,29.00
2023-02-07T20:41:29.555Z,30.80
2023-02-07T20:44:04.767Z,28.20
2023-02-07T20:46:34.831Z,30.73
2023-02-07T20:49:09.440Z,39.53
2023-02-07T20:51:37.949Z,29.10
2023-02-07T20:54:06.763Z,29.77
2023-02-07T20:56:34.602Z,23.20
2023-02-07T20:59:03.367Z,23.70
2023-02-07T21:01:31.888Z,24.63
2023-02-07T21:04:02.524Z,24.90
2023-02-07T21:06:29.795Z,28.43
2023-02-07T21:09:02.656Z,45.00
2023-02-07T21:11:37.242Z,36.13
2023-02-07T21:14:07.049Z,32.47
2023-02-07T21:16:35.150Z,31.60
2023-02-07T21:19:02.517Z,31.13
2023-02-07T21:21:29.594Z,29.10
2023-02-07T21:23:57.647Z,29.80
2023-02-07T21:26:26.619Z,28.20
2023-02-07T21:29:02.083Z,24.90
2023-02-07T21:31:30.354Z,25.13
2023-02-07T21:33:58.074Z,28.37
2023-02-07T21:36:27.921Z,30.07
2023-02-07T21:38:56.675Z,35.57
2023-02-07T21:41:26.277Z,42.87
2023-02-07T21:43:58.518Z,42.27
2023-02-07T21:46:31.488Z,45.27
2023-02-07T21:49:01.815Z,50.53
2023-02-07T21:51:30.752Z,50.43
2023-02-07T21:53:58.337Z,48.83
2023-02-07T21:56:28.016Z,48.80
2023-02-07T21:58:57.791Z,57.27
2023-02-07T22:01:25.168Z,53.97
2023-02-07T22:03:54.773Z,64.07
2023-02-07T22:06:22.949Z,105.20
2023-02-07T22:08:53.139Z,120.13
2023-02-07T22:11:22.097Z,115.57
2023-02-07T22:13:52.324Z,109.23
2023-02-07T22:16:22.106Z,111.53
2023-02-07T22:18:51.183Z,94.73
2023-02-07T22:21:23.469Z,99.97
2023-02-07T22:23:51.641Z,65.33
2023-02-07T22:26:19.327Z,40.93
2023-02-07T22:28:46.909Z,51.47
2023-02-07T22:31:16.813Z,47.27
2023-02-07T22:33:44.003Z,37.00
2023-02-07T22:36:19.539Z,35.67
2023-02-07T22:38:48.198Z,34.20
2023-02-07T22:41:16.766Z,29.63
2023-02-07T22:43:44.256Z,30.10
2023-02-07T22:46:14.618Z,28.13
2023-02-07T22:48:42.921Z,29.00
2023-02-07T22:51:11.146Z,27.73
2023-02-07T22:53:39.020Z,26.47
2023-02-07T22:56:06.414Z,28.17
2023-02-07T22:58:33.612Z,28.00
2023-02-07T23:01:00.443Z,27.23
2023-02-07T23:03:27.575Z,47.63
2023-02-07T23:05:54.607Z,29.50
2023-02-07T23:08:21.777Z,28.27
2023-02-07T23:10:48.738Z,28.63
2023-02-07T23:13:16.885Z,29.27
2023-02-07T23:15:47.866Z,29.60
2023-02-07T23:18:15.734Z,28.67
2023-02-07T23:20:44.633Z,30.47
2023-02-07T23:23:12.586Z,28.23
2023-02-07T23:25:46.857Z,28.90
2023-02-07T23:28:14.155Z,27.60
2023-02-07T23:30:42.256Z,26.97
2023-02-07T23:33:10.314Z,29.37
2023-02-07T23:35:37.246Z,28.50
2023-02-07T23:38:06.242Z,30.43
2023-02-07T23:40:33.412Z,27.87
2023-02-07T23:43:00.527Z,30.13
2023-02-07T23:45:27.361Z,28.47
2023-02-07T23:47:54.422Z,26.43
2023-02-07T23:50:22.441Z,27.50
2023-02-07T23:52:49.577Z,29.03
2023-02-07T23:55:16.398Z,27.87
2023-02-07T23:57:43.592Z,30.53
